sensor_id;sensor_type;location;lat;lon;timestamp;pressure;altitude;pressure_sealevel;temperature;humidity
76358;BME280;65185;21.060;105.826;2023-01-29T00:00:18;102614.16;;;14.35;58.18
76358;BME280;65185;21.060;105.826;2023-01-29T00:02:45;102623.44;;;14.39;56.66
76358;BME280;65185;21.060;105.826;2023-01-29T00:05:12;102632.50;;;14.45;56.26
76358;BME280;65185;21.060;105.826;2023-01-29T00:07:38;102634.16;;;14.46;55.03
76358;BME280;65185;21.060;105.826;2023-01-29T00:10:05;102633.66;;;14.49;54.92
76358;BME280;65185;21.060;105.826;2023-01-29T00:12:32;102636.03;;;14.45;54.58
76358;BME280;65185;21.060;105.826;2023-01-29T00:14:58;102648.72;;;14.45;54.79
76358;BME280;65185;21.060;105.826;2023-01-29T00:17:25;102647.19;;;14.49;55.72
76358;BME280;65185;21.060;105.826;2023-01-29T00:19:53;102653.78;;;14.53;55.21
76358;BME280;65185;21.060;105.826;2023-01-29T00:22:19;102664.22;;;14.49;55.23
76358;BME280;65185;21.060;105.826;2023-01-29T00:24:46;102662.13;;;14.51;55.73
76358;BME280;65185;21.060;105.826;2023-01-29T00:27:12;102667.88;;;14.55;55.89
76358;BME280;65185;21.060;105.826;2023-01-29T00:29:42;102671.78;;;14.59;55.34
76358;BME280;65185;21.060;105.826;2023-01-29T00:32:09;102681.50;;;14.60;54.59
76358;BME280;65185;21.060;105.826;2023-01-29T00:34:35;102684.47;;;14.59;54.92
76358;BME280;65185;21.060;105.826;2023-01-29T00:37:02;102692.94;;;14.62;55.43
76358;BME280;65185;21.060;105.826;2023-01-29T00:39:30;102691.06;;;14.63;55.16
76358;BME280;65185;21.060;105.826;2023-01-29T00:42:05;102696.56;;;14.56;54.86
76358;BME280;65185;21.060;105.826;2023-01-29T00:44:49;102705.28;;;14.58;54.46
76358;BME280;65185;21.060;105.826;2023-01-29T00:47:25;102716.09;;;14.58;53.73
76358;BME280;65185;21.060;105.826;2023-01-29T00:50:04;102716.09;;;14.58;53.88
76358;BME280;65185;21.060;105.826;2023-01-29T00:52:31;102715.38;;;14.63;53.86
76358;BME280;65185;21.060;105.826;2023-01-29T00:54:59;102723.59;;;14.56;53.52
76358;BME280;65185;21.060;105.826;2023-01-29T00:57:27;102720.44;;;14.59;54.47
76358;BME280;65185;21.060;105.826;2023-01-29T00:59:54;102721.50;;;14.58;54.59
76358;BME280;65185;21.060;105.826;2023-01-29T01:02:22;102733.38;;;14.57;54.60
76358;BME280;65185;21.060;105.826;2023-01-29T01:05:09;102733.97;;;14.59;54.76
76358;BME280;65185;21.060;105.826;2023-01-29T01:07:39;102738.91;;;14.62;54.86
76358;BME280;65185;21.060;105.826;2023-01-29T01:10:08;102752.41;;;14.62;54.56
76358;BME280;65185;21.060;105.826;2023-01-29T01:12:48;102754.66;;;14.65;53.98
76358;BME280;65185;21.060;105.826;2023-01-29T01:15:16;102754.09;;;14.75;54.04
76358;BME280;65185;21.060;105.826;2023-01-29T01:17:44;102762.91;;;14.82;54.43
76358;BME280;65185;21.060;105.826;2023-01-29T01:20:11;102765.03;;;14.91;54.22
76358;BME280;65185;21.060;105.826;2023-01-29T01:22:38;102771.16;;;14.98;54.59
76358;BME280;65185;21.060;105.826;2023-01-29T01:25:05;102773.16;;;15.03;54.65
76358;BME280;65185;21.060;105.826;2023-01-29T01:27:32;102780.66;;;15.13;54.57
76358;BME280;65185;21.060;105.826;2023-01-29T01:29:59;102782.44;;;15.19;55.06
76358;BME280;65185;21.060;105.826;2023-01-29T01:32:26;102781.00;;;15.28;54.81
76358;BME280;65185;21.060;105.826;2023-01-29T01:34:52;102795.34;;;15.40;54.59
76358;BME280;65185;21.060;105.826;2023-01-29T01:37:19;102795.25;;;15.47;54.26
76358;BME280;65185;21.060;105.826;2023-01-29T01:39:46;102801.72;;;15.57;53.85
76358;BME280;65185;21.060;105.826;2023-01-29T01:42:14;102805.13;;;15.64;53.35
76358;BME280;65185;21.060;105.826;2023-01-29T01:47:43;102821.38;;;15.76;52.76
76358;BME280;65185;21.060;105.826;2023-01-29T01:50:32;102820.88;;;15.79;52.00
76358;BME280;65185;21.060;105.826;2023-01-29T01:53:08;102816.88;;;15.82;50.15
76358;BME280;65185;21.060;105.826;2023-01-29T01:55:57;102815.56;;;15.84;49.15
76358;BME280;65185;21.060;105.826;2023-01-29T01:58:41;102833.22;;;15.87;48.42
76358;BME280;65185;21.060;105.826;2023-01-29T02:01:09;102833.56;;;15.90;48.82
76358;BME280;65185;21.060;105.826;2023-01-29T02:03:45;102839.69;;;15.97;48.35
76358;BME280;65185;21.060;105.826;2023-01-29T02:06:31;102838.84;;;15.97;47.64
76358;BME280;65185;21.060;105.826;2023-01-29T02:09:24;102841.66;;;16.02;46.62
76358;BME280;65185;21.060;105.826;2023-01-29T02:12:07;102842.59;;;16.07;47.25
76358;BME280;65185;21.060;105.826;2023-01-29T02:14:38;102840.56;;;16.14;47.10
76358;BME280;65185;21.060;105.826;2023-01-29T02:17:07;102838.53;;;16.21;46.80
76358;BME280;65185;21.060;105.826;2023-01-29T02:25:22;102850.50;;;16.37;45.64
76358;BME280;65185;21.060;105.826;2023-01-29T02:30:46;102849.34;;;16.50;45.04
76358;BME280;65185;21.060;105.826;2023-01-29T02:39:22;102840.56;;;16.71;40.89
76358;BME280;65185;21.060;105.826;2023-01-29T02:47:32;102841.88;;;17.02;39.33
76358;BME280;65185;21.060;105.826;2023-01-29T02:50:10;102836.03;;;17.10;38.83
76358;BME280;65185;21.060;105.826;2023-01-29T02:52:57;102831.84;;;17.19;39.29
76358;BME280;65185;21.060;105.826;2023-01-29T02:55:30;102835.75;;;17.28;38.68
76358;BME280;65185;21.060;105.826;2023-01-29T02:58:12;102840.34;;;17.44;38.70
76358;BME280;65185;21.060;105.826;2023-01-29T03:00:46;102830.63;;;17.65;39.13
76358;BME280;65185;21.060;105.826;2023-01-29T03:03:30;102830.81;;;17.80;37.58
76358;BME280;65185;21.060;105.826;2023-01-29T03:09:09;102823.03;;;18.11;36.86
76358;BME280;65185;21.060;105.826;2023-01-29T03:11:51;102826.09;;;18.19;36.10
76358;BME280;65185;21.060;105.826;2023-01-29T03:14:34;102817.50;;;18.27;36.64
76358;BME280;65185;21.060;105.826;2023-01-29T03:17:23;102820.72;;;18.24;35.01
76358;BME280;65185;21.060;105.826;2023-01-29T03:19:51;102816.53;;;18.39;34.46
76358;BME280;65185;21.060;105.826;2023-01-29T03:22:19;102818.34;;;18.55;35.65
76358;BME280;65185;21.060;105.826;2023-01-29T03:24:57;102818.91;;;18.62;35.12
76358;BME280;65185;21.060;105.826;2023-01-29T03:27:55;102807.66;;;18.80;33.77
76358;BME280;65185;21.060;105.826;2023-01-29T03:30:53;102797.16;;;18.94;33.14
76358;BME280;65185;21.060;105.826;2023-01-29T03:33:46;102792.84;;;19.03;32.06
76358;BME280;65185;21.060;105.826;2023-01-29T03:36:31;102781.34;;;18.96;31.98
76358;BME280;65185;21.060;105.826;2023-01-29T03:39:07;102781.81;;;18.83;31.82
76358;BME280;65185;21.060;105.826;2023-01-29T03:44:59;102773.91;;;18.81;32.26
76358;BME280;65185;21.060;105.826;2023-01-29T03:50:06;102763.16;;;19.06;32.09
76358;BME280;65185;21.060;105.826;2023-01-29T03:52:47;102755.03;;;19.11;31.99
76358;BME280;65185;21.060;105.826;2023-01-29T03:55:19;102753.44;;;19.16;32.56
76358;BME280;65185;21.060;105.826;2023-01-29T03:58:00;102745.72;;;19.02;32.54
76358;BME280;65185;21.060;105.826;2023-01-29T04:00:48;102749.97;;;19.30;31.98
76358;BME280;65185;21.060;105.826;2023-01-29T04:06:25;102734.88;;;19.07;32.00
76358;BME280;65185;21.060;105.826;2023-01-29T04:09:16;102725.59;;;19.03;32.70
76358;BME280;65185;21.060;105.826;2023-01-29T04:11:49;102716.88;;;19.06;31.94
76358;BME280;65185;21.060;105.826;2023-01-29T04:14:18;102712.84;;;19.14;32.58
76358;BME280;65185;21.060;105.826;2023-01-29T04:16:48;102700.34;;;19.23;32.17
76358;BME280;65185;21.060;105.826;2023-01-29T04:19:17;102689.22;;;19.30;31.96
76358;BME280;65185;21.060;105.826;2023-01-29T04:21:45;102689.50;;;19.33;31.69
76358;BME280;65185;21.060;105.826;2023-01-29T04:24:14;102688.94;;;19.31;30.44
76358;BME280;65185;21.060;105.826;2023-01-29T04:37:29;102651.44;;;19.48;31.59
76358;BME280;65185;21.060;105.826;2023-01-29T04:42:43;102634.72;;;19.35;30.74
76358;BME280;65185;21.060;105.826;2023-01-29T04:50:45;102614.13;;;19.69;30.27
76358;BME280;65185;21.060;105.826;2023-01-29T04:53:42;102600.50;;;19.79;30.68
76358;BME280;65185;21.060;105.826;2023-01-29T04:56:32;102593.97;;;19.85;30.40
76358;BME280;65185;21.060;105.826;2023-01-29T04:59:05;102570.50;;;19.89;29.35
76358;BME280;65185;21.060;105.826;2023-01-29T05:01:34;102563.44;;;19.83;28.68
76358;BME280;65185;21.060;105.826;2023-01-29T05:04:06;102554.41;;;19.98;28.67
76358;BME280;65185;21.060;105.826;2023-01-29T05:06:35;102548.16;;;19.92;29.25
76358;BME280;65185;21.060;105.826;2023-01-29T05:09:03;102538.91;;;19.83;30.33
76358;BME280;65185;21.060;105.826;2023-01-29T05:11:31;102533.44;;;19.78;29.41
76358;BME280;65185;21.060;105.826;2023-01-29T05:14:01;102518.41;;;19.96;29.41
76358;BME280;65185;21.060;105.826;2023-01-29T05:16:37;102516.53;;;19.91;29.84
76358;BME280;65185;21.060;105.826;2023-01-29T05:19:12;102505.63;;;19.81;30.09
76358;BME280;65185;21.060;105.826;2023-01-29T05:21:42;102497.41;;;19.97;30.01
76358;BME280;65185;21.060;105.826;2023-01-29T05:24:13;102482.94;;;20.06;28.84
76358;BME280;65185;21.060;105.826;2023-01-29T05:26:42;102479.44;;;19.85;29.49
76358;BME280;65185;21.060;105.826;2023-01-29T05:29:27;102469.34;;;19.86;29.28
76358;BME280;65185;21.060;105.826;2023-01-29T05:31:54;102460.34;;;19.90;30.06
76358;BME280;65185;21.060;105.826;2023-01-29T05:34:21;102450.00;;;19.82;30.65
76358;BME280;65185;21.060;105.826;2023-01-29T05:36:47;102448.41;;;19.66;30.27
76358;BME280;65185;21.060;105.826;2023-01-29T05:39:14;102436.88;;;19.89;29.88
76358;BME280;65185;21.060;105.826;2023-01-29T05:41:41;102429.84;;;19.83;29.39
76358;BME280;65185;21.060;105.826;2023-01-29T05:44:11;102416.22;;;19.83;30.12
76358;BME280;65185;21.060;105.826;2023-01-29T05:46:38;102406.97;;;19.64;29.88
76358;BME280;65185;21.060;105.826;2023-01-29T05:49:05;102396.63;;;19.56;30.00
76358;BME280;65185;21.060;105.826;2023-01-29T05:51:31;102396.63;;;19.61;30.34
76358;BME280;65185;21.060;105.826;2023-01-29T05:53:58;102391.16;;;19.56;30.50
76358;BME280;65185;21.060;105.826;2023-01-29T05:56:25;102383.56;;;19.53;31.03
76358;BME280;65185;21.060;105.826;2023-01-29T05:58:52;102378.09;;;19.53;30.37
76358;BME280;65185;21.060;105.826;2023-01-29T06:01:22;102372.91;;;19.51;30.80
76358;BME280;65185;21.060;105.826;2023-01-29T06:03:49;102363.38;;;19.64;29.61
76358;BME280;65185;21.060;105.826;2023-01-29T06:06:16;102363.94;;;19.61;31.01
76358;BME280;65185;21.060;105.826;2023-01-29T06:08:43;102351.41;;;19.55;31.68
76358;BME280;65185;21.060;105.826;2023-01-29T06:11:11;102355.75;;;19.46;31.88
76358;BME280;65185;21.060;105.826;2023-01-29T06:13:38;102346.50;;;19.42;32.28
76358;BME280;65185;21.060;105.826;2023-01-29T06:16:09;102338.31;;;19.52;32.58
76358;BME280;65185;21.060;105.826;2023-01-29T06:18:37;102335.59;;;19.42;33.01
76358;BME280;65185;21.060;105.826;2023-01-29T06:21:05;102331.50;;;19.44;32.75
76358;BME280;65185;21.060;105.826;2023-01-29T06:23:35;102329.84;;;19.59;30.37
76358;BME280;65185;21.060;105.826;2023-01-29T06:26:07;102323.59;;;19.43;30.65
76358;BME280;65185;21.060;105.826;2023-01-29T06:28:34;102312.75;;;19.28;31.31
76358;BME280;65185;21.060;105.826;2023-01-29T06:31:01;102312.97;;;19.41;31.24
76358;BME280;65185;21.060;105.826;2023-01-29T06:33:29;102305.34;;;19.43;31.50
76358;BME280;65185;21.060;105.826;2023-01-29T06:36:02;102299.63;;;19.40;31.28
76358;BME280;65185;21.060;105.826;2023-01-29T06:38:30;102290.94;;;19.38;32.28
76358;BME280;65185;21.060;105.826;2023-01-29T06:40:57;102281.34;;;19.50;31.51
76358;BME280;65185;21.060;105.826;2023-01-29T06:43:24;102276.44;;;19.58;31.17
76358;BME280;65185;21.060;105.826;2023-01-29T06:45:55;102269.63;;;19.60;31.77
76358;BME280;65185;21.060;105.826;2023-01-29T06:48:23;102266.94;;;19.45;32.28
76358;BME280;65185;21.060;105.826;2023-01-29T06:50:50;102261.50;;;19.35;32.55
76358;BME280;65185;21.060;105.826;2023-01-29T06:53:20;102255.53;;;19.28;31.85
76358;BME280;65185;21.060;105.826;2023-01-29T06:55:51;102248.16;;;19.28;32.04
76358;BME280;65185;21.060;105.826;2023-01-29T06:58:18;102247.34;;;19.33;32.32
76358;BME280;65185;21.060;105.826;2023-01-29T07:00:45;102238.91;;;19.24;31.52
76358;BME280;65185;21.060;105.826;2023-01-29T07:03:11;102234.84;;;19.27;30.56
76358;BME280;65185;21.060;105.826;2023-01-29T07:05:38;102231.59;;;19.20;29.77
76358;BME280;65185;21.060;105.826;2023-01-29T07:08:05;102231.84;;;19.23;29.87
76358;BME280;65185;21.060;105.826;2023-01-29T07:10:31;102219.84;;;19.29;31.55
76358;BME280;65185;21.060;105.826;2023-01-29T07:12:58;102222.84;;;19.28;32.91
76358;BME280;65185;21.060;105.826;2023-01-29T07:15:25;102212.25;;;19.21;34.33
76358;BME280;65185;21.060;105.826;2023-01-29T07:17:59;102202.72;;;19.19;32.79
76358;BME280;65185;21.060;105.826;2023-01-29T07:20:28;102204.34;;;19.20;32.28
76358;BME280;65185;21.060;105.826;2023-01-29T07:22:58;102200.53;;;19.21;32.76
76358;BME280;65185;21.060;105.826;2023-01-29T07:25:25;102196.19;;;19.20;33.16
76358;BME280;65185;21.060;105.826;2023-01-29T07:27:51;102187.16;;;19.24;34.17
76358;BME280;65185;21.060;105.826;2023-01-29T07:30:18;102182.03;;;19.13;34.88
76358;BME280;65185;21.060;105.826;2023-01-29T07:32:44;102176.03;;;19.16;34.19
76358;BME280;65185;21.060;105.826;2023-01-29T07:35:11;102174.94;;;19.11;32.26
76358;BME280;65185;21.060;105.826;2023-01-29T07:37:38;102172.25;;;19.06;33.27
76358;BME280;65185;21.060;105.826;2023-01-29T07:40:05;102160.28;;;19.02;33.01
76358;BME280;65185;21.060;105.826;2023-01-29T07:42:37;102158.66;;;19.01;32.09
76358;BME280;65185;21.060;105.826;2023-01-29T07:45:05;102148.56;;;19.02;31.77
76358;BME280;65185;21.060;105.826;2023-01-29T07:47:32;102145.59;;;19.03;31.14
76358;BME280;65185;21.060;105.826;2023-01-29T07:50:14;102135.50;;;19.04;31.30
76358;BME280;65185;21.060;105.826;2023-01-29T07:52:41;102130.88;;;19.09;35.45
76358;BME280;65185;21.060;105.826;2023-01-29T07:55:08;102133.88;;;19.03;35.62
76358;BME280;65185;21.060;105.826;2023-01-29T07:57:36;102137.72;;;18.97;36.00
76358;BME280;65185;21.060;105.826;2023-01-29T08:00:03;102129.28;;;18.93;35.88
76358;BME280;65185;21.060;105.826;2023-01-29T08:02:29;102130.94;;;18.94;35.78
76358;BME280;65185;21.060;105.826;2023-01-29T08:04:56;102127.38;;;18.99;33.34
76358;BME280;65185;21.060;105.826;2023-01-29T08:07:22;102118.34;;;19.03;34.76
76358;BME280;65185;21.060;105.826;2023-01-29T08:09:49;102123.81;;;18.98;35.47
76358;BME280;65185;21.060;105.826;2023-01-29T08:12:16;102116.19;;;18.95;36.01
76358;BME280;65185;21.060;105.826;2023-01-29T08:14:42;102120.03;;;18.94;37.15
76358;BME280;65185;21.060;105.826;2023-01-29T08:17:11;102109.66;;;18.96;35.31
76358;BME280;65185;21.060;105.826;2023-01-29T08:19:38;102108.56;;;19.02;34.15
76358;BME280;65185;21.060;105.826;2023-01-29T08:22:05;102104.50;;;19.00;33.63
76358;BME280;65185;21.060;105.826;2023-01-29T08:24:32;102099.28;;;19.08;32.64
76358;BME280;65185;21.060;105.826;2023-01-29T08:26:59;102098.44;;;19.08;33.71
76358;BME280;65185;21.060;105.826;2023-01-29T08:29:25;102094.41;;;19.00;35.32
76358;BME280;65185;21.060;105.826;2023-01-29T08:31:52;102093.88;;;18.98;33.06
76358;BME280;65185;21.060;105.826;2023-01-29T08:34:18;102090.59;;;19.01;34.49
76358;BME280;65185;21.060;105.826;2023-01-29T08:36:45;102092.13;;;19.18;35.25
76358;BME280;65185;21.060;105.826;2023-01-29T08:39:12;102087.81;;;19.11;32.70
76358;BME280;65185;21.060;105.826;2023-01-29T08:41:39;102080.47;;;19.07;32.67
76358;BME280;65185;21.060;105.826;2023-01-29T08:44:08;102092.19;;;19.07;33.35
76358;BME280;65185;21.060;105.826;2023-01-29T08:46:34;102085.97;;;19.02;33.22
76358;BME280;65185;21.060;105.826;2023-01-29T08:49:02;102079.69;;;19.01;32.66
76358;BME280;65185;21.060;105.826;2023-01-29T08:51:29;102083.00;;;18.98;31.85
76358;BME280;65185;21.060;105.826;2023-01-29T08:53:55;102087.63;;;18.98;31.19
76358;BME280;65185;21.060;105.826;2023-01-29T08:56:22;102076.47;;;18.94;31.97
76358;BME280;65185;21.060;105.826;2023-01-29T08:58:48;102082.47;;;18.91;35.33
76358;BME280;65185;21.060;105.826;2023-01-29T09:01:18;102073.75;;;18.89;37.48
76358;BME280;65185;21.060;105.826;2023-01-29T09:03:45;102071.03;;;18.89;39.26
76358;BME280;65185;21.060;105.826;2023-01-29T09:06:13;102081.66;;;18.86;37.17
76358;BME280;65185;21.060;105.826;2023-01-29T09:08:39;102082.75;;;18.85;35.82
76358;BME280;65185;21.060;105.826;2023-01-29T09:11:06;102072.94;;;18.84;39.61
76358;BME280;65185;21.060;105.826;2023-01-29T09:13:33;102076.25;;;18.81;37.76
76358;BME280;65185;21.060;105.826;2023-01-29T09:16:01;102086.31;;;18.80;39.40
76358;BME280;65185;21.060;105.826;2023-01-29T09:18:31;102081.16;;;18.79;38.39
76358;BME280;65185;21.060;105.826;2023-01-29T09:20:58;102077.09;;;18.76;38.67
76358;BME280;65185;21.060;105.826;2023-01-29T09:23:27;102084.69;;;18.74;39.25
76358;BME280;65185;21.060;105.826;2023-01-29T09:25:55;102079.53;;;18.67;38.76
76358;BME280;65185;21.060;105.826;2023-01-29T09:28:31;102073.84;;;18.64;38.60
76358;BME280;65185;21.060;105.826;2023-01-29T09:31:00;102080.66;;;18.61;40.00
76358;BME280;65185;21.060;105.826;2023-01-29T09:33:30;102088.56;;;18.58;39.30
76358;BME280;65185;21.060;105.826;2023-01-29T09:35:57;102083.13;;;18.48;38.76
76358;BME280;65185;21.060;105.826;2023-01-29T09:38:33;102082.06;;;18.44;38.04
76358;BME280;65185;21.060;105.826;2023-01-29T09:41:05;102091.00;;;18.39;36.91
76358;BME280;65185;21.060;105.826;2023-01-29T09:43:47;102076.88;;;18.37;37.29
76358;BME280;65185;21.060;105.826;2023-01-29T09:46:22;102095.38;;;18.35;37.21
76358;BME280;65185;21.060;105.826;2023-01-29T09:49:02;102093.47;;;18.31;37.74
76358;BME280;65185;21.060;105.826;2023-01-29T09:51:39;102090.78;;;18.25;38.38
76358;BME280;65185;21.060;105.826;2023-01-29T09:56:36;102089.41;;;18.18;39.35
76358;BME280;65185;21.060;105.826;2023-01-29T09:59:03;102091.88;;;18.14;39.43
76358;BME280;65185;21.060;105.826;2023-01-29T10:07:06;102104.38;;;18.00;41.44
76358;BME280;65185;21.060;105.826;2023-01-29T10:12:43;102102.22;;;17.92;42.08
76358;BME280;65185;21.060;105.826;2023-01-29T10:23:32;102100.00;;;17.74;43.86
76358;BME280;65185;21.060;105.826;2023-01-29T10:26:00;102103.28;;;17.71;44.15
76358;BME280;65185;21.060;105.826;2023-01-29T10:28:40;102102.97;;;17.67;44.03
76358;BME280;65185;21.060;105.826;2023-01-29T10:31:29;102104.09;;;17.66;43.20
76358;BME280;65185;21.060;105.826;2023-01-29T10:34:18;102125.53;;;17.63;44.58
76358;BME280;65185;21.060;105.826;2023-01-29T10:36:49;102121.13;;;17.57;44.99
76358;BME280;65185;21.060;105.826;2023-01-29T10:39:20;102123.84;;;17.52;45.87
76358;BME280;65185;21.060;105.826;2023-01-29T10:52:51;102133.59;;;17.37;45.30
76358;BME280;65185;21.060;105.826;2023-01-29T11:00:48;102137.38;;;17.26;44.96
76358;BME280;65185;21.060;105.826;2023-01-29T11:03:20;102144.13;;;17.24;45.55
76358;BME280;65185;21.060;105.826;2023-01-29T11:12:04;102141.38;;;17.14;45.49
76358;BME280;65185;21.060;105.826;2023-01-29T11:14:47;102146.81;;;17.14;46.10
76358;BME280;65185;21.060;105.826;2023-01-29T11:17:18;102143.00;;;17.15;46.50
76358;BME280;65185;21.060;105.826;2023-01-29T11:19:47;102145.97;;;17.13;47.43
76358;BME280;65185;21.060;105.826;2023-01-29T11:22:19;102143.28;;;17.13;47.89
76358;BME280;65185;21.060;105.826;2023-01-29T11:25:18;102141.91;;;17.11;47.00
76358;BME280;65185;21.060;105.826;2023-01-29T11:28:05;102140.78;;;17.07;46.80
76358;BME280;65185;21.060;105.826;2023-01-29T11:30:35;102144.59;;;17.05;46.87
76358;BME280;65185;21.060;105.826;2023-01-29T11:33:18;102154.66;;;17.05;47.25
76358;BME280;65185;21.060;105.826;2023-01-29T11:35:45;102149.47;;;17.03;46.90
76358;BME280;65185;21.060;105.826;2023-01-29T11:40:44;102162.47;;;16.96;45.48
76358;BME280;65185;21.060;105.826;2023-01-29T11:43:29;102168.16;;;17.00;46.32
76358;BME280;65185;21.060;105.826;2023-01-29T11:46:04;102171.44;;;17.02;47.98
76358;BME280;65185;21.060;105.826;2023-01-29T11:48:42;102166.59;;;17.04;51.44
76358;BME280;65185;21.060;105.826;2023-01-29T11:51:19;102174.72;;;17.04;53.10
76358;BME280;65185;21.060;105.826;2023-01-29T11:53:58;102174.19;;;17.07;55.31
76358;BME280;65185;21.060;105.826;2023-01-29T11:56:40;102181.25;;;17.08;56.33
76358;BME280;65185;21.060;105.826;2023-01-29T11:59:40;102181.78;;;17.05;57.37
76358;BME280;65185;21.060;105.826;2023-01-29T12:02:18;102182.88;;;17.04;59.04
76358;BME280;65185;21.060;105.826;2023-01-29T12:04:46;102186.31;;;16.94;58.59
76358;BME280;65185;21.060;105.826;2023-01-29T12:07:15;102184.41;;;16.90;58.30
76358;BME280;65185;21.060;105.826;2023-01-29T12:09:49;102195.25;;;16.90;57.78
76358;BME280;65185;21.060;105.826;2023-01-29T12:12:27;102191.47;;;16.91;59.21
76358;BME280;65185;21.060;105.826;2023-01-29T12:15:21;102193.31;;;16.80;59.85
76358;BME280;65185;21.060;105.826;2023-01-29T12:18:24;102189.75;;;16.80;59.84
76358;BME280;65185;21.060;105.826;2023-01-29T12:21:01;102198.94;;;16.74;59.84
76358;BME280;65185;21.060;105.826;2023-01-29T12:23:56;102194.56;;;16.68;59.26
76358;BME280;65185;21.060;105.826;2023-01-29T12:26:48;102200.56;;;16.70;58.52
76358;BME280;65185;21.060;105.826;2023-01-29T12:32:25;102207.88;;;16.69;58.91
76358;BME280;65185;21.060;105.826;2023-01-29T12:35:40;102210.31;;;16.66;59.02
76358;BME280;65185;21.060;105.826;2023-01-29T12:38:24;102212.44;;;16.63;58.71
76358;BME280;65185;21.060;105.826;2023-01-29T12:40:51;102210.25;;;16.60;57.74
76358;BME280;65185;21.060;105.826;2023-01-29T12:43:34;102222.94;;;16.55;57.09
76358;BME280;65185;21.060;105.826;2023-01-29T12:46:07;102225.94;;;16.58;57.83
76358;BME280;65185;21.060;105.826;2023-01-29T12:48:38;102221.59;;;16.57;57.85
76358;BME280;65185;21.060;105.826;2023-01-29T12:51:14;102230.53;;;16.58;57.57
76358;BME280;65185;21.060;105.826;2023-01-29T12:53:47;102229.72;;;16.57;57.49
76358;BME280;65185;21.060;105.826;2023-01-29T12:56:26;102234.69;;;16.60;58.53
76358;BME280;65185;21.060;105.826;2023-01-29T12:58:55;102230.25;;;16.54;56.96
76358;BME280;65185;21.060;105.826;2023-01-29T13:01:32;102241.84;;;16.50;57.65
76358;BME280;65185;21.060;105.826;2023-01-29T13:04:10;102239.41;;;16.48;56.31
76358;BME280;65185;21.060;105.826;2023-01-29T13:06:53;102239.91;;;16.45;56.06
76358;BME280;65185;21.060;105.826;2023-01-29T13:09:29;102238.59;;;16.48;56.24
76358;BME280;65185;21.060;105.826;2023-01-29T13:11:59;102243.69;;;16.44;56.78
76358;BME280;65185;21.060;105.826;2023-01-29T13:14:50;102241.56;;;16.46;56.60
76358;BME280;65185;21.060;105.826;2023-01-29T13:17:43;102238.28;;;16.44;56.87
76358;BME280;65185;21.060;105.826;2023-01-29T13:22:45;102248.84;;;16.41;57.96
76358;BME280;65185;21.060;105.826;2023-01-29T13:25:16;102243.94;;;16.38;57.84
76358;BME280;65185;21.060;105.826;2023-01-29T13:27:45;102247.19;;;16.40;57.55
76358;BME280;65185;21.060;105.826;2023-01-29T13:30:27;102240.66;;;16.36;57.74
76358;BME280;65185;21.060;105.826;2023-01-29T13:32:56;102242.28;;;16.37;58.03
76358;BME280;65185;21.060;105.826;2023-01-29T13:35:41;102245.78;;;16.32;57.08
76358;BME280;65185;21.060;105.826;2023-01-29T13:38:30;102251.69;;;16.29;57.99
76358;BME280;65185;21.060;105.826;2023-01-29T13:41:03;102262.25;;;16.26;56.90
76358;BME280;65185;21.060;105.826;2023-01-29T13:43:35;102259.78;;;16.24;56.65
76358;BME280;65185;21.060;105.826;2023-01-29T13:46:12;102258.78;;;16.30;57.97
76358;BME280;65185;21.060;105.826;2023-01-29T13:48:45;102262.88;;;16.33;57.22
76358;BME280;65185;21.060;105.826;2023-01-29T13:51:16;102260.41;;;16.31;57.23
76358;BME280;65185;21.060;105.826;2023-01-29T13:54:01;102269.59;;;16.30;56.74
76358;BME280;65185;21.060;105.826;2023-01-29T13:59:03;102271.75;;;16.28;56.76
76358;BME280;65185;21.060;105.826;2023-01-29T14:06:51;102282.91;;;16.32;56.94
76358;BME280;65185;21.060;105.826;2023-01-29T14:17:26;102291.25;;;16.25;69.25
76358;BME280;65185;21.060;105.826;2023-01-29T14:20:02;102286.03;;;16.18;73.18
76358;BME280;65185;21.060;105.826;2023-01-29T14:22:40;102285.19;;;16.18;74.53
76358;BME280;65185;21.060;105.826;2023-01-29T14:25:16;102291.50;;;16.23;75.55
76358;BME280;65185;21.060;105.826;2023-01-29T14:27:48;102285.78;;;16.20;76.20
76358;BME280;65185;21.060;105.826;2023-01-29T14:30:19;102284.34;;;16.12;77.51
76358;BME280;65185;21.060;105.826;2023-01-29T14:32:49;102282.38;;;16.08;78.50
76358;BME280;65185;21.060;105.826;2023-01-29T14:35:21;102288.63;;;16.08;78.25
76358;BME280;65185;21.060;105.826;2023-01-29T14:38:04;102284.81;;;16.04;77.10
76358;BME280;65185;21.060;105.826;2023-01-29T14:40:32;102292.66;;;16.06;76.04
76358;BME280;65185;21.060;105.826;2023-01-29T14:43:07;102287.19;;;16.01;73.91
76358;BME280;65185;21.060;105.826;2023-01-29T14:45:48;102286.13;;;16.02;73.07
76358;BME280;65185;21.060;105.826;2023-01-29T14:48:50;102296.72;;;16.03;71.80
76358;BME280;65185;21.060;105.826;2023-01-29T14:51:19;102292.94;;;16.04;72.45
76358;BME280;65185;21.060;105.826;2023-01-29T14:57:02;102311.75;;;16.16;75.72
76358;BME280;65185;21.060;105.826;2023-01-29T14:59:39;102311.00;;;16.20;78.68
76358;BME280;65185;21.060;105.826;2023-01-29T15:02:18;102308.59;;;16.24;85.85